Time;durP1;ratioP1;P1;durP2;ratioP2;P2;SDS_P1;SDS_P2;PMS_P1;PMS_P2;Temp;Humidity;BMP_temperature;BMP_pressure;BME280_temperature;BME280_humidity;BME280_pressure;Samples;Min_cycle;Max_cycle;Signal;HPM_P1;HPM_P2
2023/12/03 00:00:45;;;;;;;36.95;19.05;;;;;;;3.12;59.83;101573.19;5069179;28;20588;-65
2023/12/03 00:03:13;;;;;;;34.17;18.05;;;;;;;2.97;60.43;101567.44;5061175;28;20053;-64
2023/12/03 00:05:40;;;;;;;35.15;17.95;;;;;;;3.07;60.44;101573.09;5051524;28;20060;-65
2023/12/03 00:08:08;;;;;;;40.20;18.95;;;;;;;3.04;60.46;101570.03;5054052;28;20045;-64
2023/12/03 00:10:35;;;;;;;37.25;18.90;;;;;;;3.14;60.49;101578.38;5062861;28;20052;-64
2023/12/03 00:13:02;;;;;;;38.28;18.58;;;;;;;3.07;60.52;101570.34;5061194;28;20048;-65
2023/12/03 00:15:30;;;;;;;36.17;18.15;;;;;;;2.90;60.79;101574.09;5049234;28;20068;-64
2023/12/03 00:17:57;;;;;;;35.00;18.40;;;;;;;2.90;60.74;101574.09;5049976;28;20056;-65
2023/12/03 00:20:24;;;;;;;33.65;17.75;;;;;;;2.99;60.72;101569.94;5051108;28;20404;-64
2023/12/03 00:22:52;;;;;;;39.17;19.40;;;;;;;2.91;60.71;101576.56;5051255;28;20128;-65
2023/12/03 00:25:19;;;;;;;38.20;19.35;;;;;;;2.94;61.14;101573.38;5045489;28;20041;-65
2023/12/03 00:27:46;;;;;;;33.40;18.85;;;;;;;3.03;61.08;101574.63;5050613;28;20060;-65
2023/12/03 00:30:14;;;;;;;36.63;18.77;;;;;;;2.96;60.88;101573.13;5049900;28;20163;-64
2023/12/03 00:32:41;;;;;;;35.50;19.83;;;;;;;2.90;61.03;101572.22;5054712;28;20045;-65
2023/12/03 00:35:09;;;;;;;39.05;20.02;;;;;;;2.85;61.49;101580.28;5070537;28;20064;-65
2023/12/03 00:37:36;;;;;;;40.00;20.80;;;;;;;2.95;61.43;101572.31;5071052;28;20452;-65
2023/12/03 00:40:04;;;;;;;45.17;24.80;;;;;;;2.90;61.70;101577.66;5046005;28;20064;-64
2023/12/03 00:42:34;;;;;;;37.80;20.48;;;;;;;2.73;62.13;101575.94;5045883;28;20548;-65
2023/12/03 00:45:04;;;;;;;40.22;20.65;;;;;;;2.92;61.84;101580.13;5034622;28;20707;-65
2023/12/03 00:47:31;;;;;;;37.63;20.38;;;;;;;2.87;61.57;101574.59;5049321;28;20061;-62
2023/12/03 00:49:59;;;;;;;37.70;21.00;;;;;;;2.94;61.42;101565.22;5049463;28;20416;-65
2023/12/03 00:52:26;;;;;;;38.72;19.90;;;;;;;2.94;61.43;101572.56;5050076;28;20045;-64
2023/12/03 00:54:54;;;;;;;39.65;21.00;;;;;;;2.86;61.52;101559.34;5064939;28;20068;-64
2023/12/03 00:57:21;;;;;;;40.72;21.00;;;;;;;2.87;61.33;101563.72;5050168;28;20053;-65
2023/12/03 00:59:48;;;;;;;40.50;20.83;;;;;;;2.91;61.19;101560.25;5052135;28;20057;-64
2023/12/03 01:02:16;;;;;;;41.95;20.83;;;;;;;2.85;61.28;101563.13;5052719;28;20052;-65
2023/12/03 01:04:43;;;;;;;42.20;21.73;;;;;;;2.80;61.38;101558.41;5032459;28;20421;-64
2023/12/03 01:07:10;;;;;;;42.47;20.65;;;;;;;2.85;61.51;101566.66;5047724;28;20573;-65
2023/12/03 01:09:37;;;;;;;39.28;21.38;;;;;;;2.91;61.28;101559.44;5059800;28;20060;-64
2023/12/03 01:12:05;;;;;;;48.25;22.70;;;;;;;2.80;61.87;101560.31;5049798;28;20471;-65
2023/12/03 01:14:32;;;;;;;41.38;20.83;;;;;;;3.02;61.39;101555.81;5033431;28;20048;-64
2023/12/03 01:17:00;;;;;;;36.90;19.98;;;;;;;2.81;62.15;101556.50;5052807;28;20048;-65
2023/12/03 01:19:27;;;;;;;40.60;21.70;;;;;;;2.80;62.01;101557.59;5044868;28;20052;-65
2023/12/03 01:21:55;;;;;;;41.67;21.63;;;;;;;2.80;61.91;101552.97;5052345;28;20052;-66
2023/12/03 01:24:22;;;;;;;42.80;21.90;;;;;;;2.92;61.58;101550.19;5051453;28;20060;-65
2023/12/03 01:26:49;;;;;;;45.85;22.35;;;;;;;2.94;61.32;101553.50;5053894;28;20060;-64
2023/12/03 01:29:17;;;;;;;39.72;21.73;;;;;;;2.84;61.34;101548.69;5052117;28;20055;-64
2023/12/03 01:31:44;;;;;;;42.90;21.77;;;;;;;3.00;61.17;101553.34;5053775;28;20064;-66
2023/12/03 01:34:11;;;;;;;42.55;22.05;;;;;;;2.86;61.53;101546.53;5055163;28;20056;-66
2023/12/03 01:36:39;;;;;;;47.47;23.55;;;;;;;2.74;61.93;101561.25;5052515;28;20061;-64
2023/12/03 01:39:06;;;;;;;44.67;24.27;;;;;;;2.62;62.95;101560.47;5059467;28;20045;-64
2023/12/03 01:41:33;;;;;;;43.13;23.52;;;;;;;2.50;63.73;101559.66;5066026;28;20059;-65
2023/12/03 01:44:06;;;;;;;47.38;24.25;;;;;;;2.73;63.51;101556.88;5035925;28;20052;-65
2023/12/03 01:46:34;;;;;;;50.30;25.50;;;;;;;2.35;63.67;101564.78;5052704;28;20060;-65
2023/12/03 01:49:01;;;;;;;47.28;24.52;;;;;;;2.43;63.99;101556.25;5052323;28;20396;-64
2023/12/03 01:51:28;;;;;;;45.45;25.13;;;;;;;2.36;64.68;101561.00;5055042;28;20060;-66
2023/12/03 01:53:56;;;;;;;46.63;25.10;;;;;;;2.17;64.81;101555.72;5053627;28;20053;-65
2023/12/03 01:56:23;;;;;;;44.55;24.27;;;;;;;2.48;64.16;101559.91;5053246;28;20427;-64
2023/12/03 01:59:39;;;;;;;49.72;24.48;;;;;;;2.20;64.85;101557.94;5051947;28;20420;-68
2023/12/03 02:02:34;;;;;;;46.55;23.70;;;;;;;2.11;65.20;101566.72;5029710;28;20057;-64
2023/12/03 02:05:02;;;;;;;43.28;24.17;;;;;;;2.18;65.92;101560.06;5051851;28;20076;-64
2023/12/03 02:07:29;;;;;;;48.50;25.70;;;;;;;2.30;65.48;101557.38;5048455;28;20057;-65
2023/12/03 02:09:59;;;;;;;51.50;25.35;;;;;;;2.09;65.85;101558.78;5054023;28;20048;-64
2023/12/03 02:12:27;;;;;;;46.70;25.38;;;;;;;2.04;66.27;101555.94;5058840;28;20057;-64
2023/12/03 02:14:54;;;;;;;49.70;26.63;;;;;;;1.97;66.79;101557.16;5050970;28;20045;-64
2023/12/03 02:17:21;;;;;;;46.22;26.25;;;;;;;2.33;65.73;101554.16;5052909;28;20049;-65
2023/12/03 02:19:48;;;;;;;48.35;24.85;;;;;;;2.28;65.80;101543.19;5051683;28;20060;-65
2023/12/03 02:22:16;;;;;;;46.05;25.45;;;;;;;2.13;65.62;101549.09;5053347;28;20040;-64
2023/12/03 02:24:43;;;;;;;52.17;24.98;;;;;;;2.34;65.36;101544.91;5053732;28;20396;-64
2023/12/03 02:27:10;;;;;;;48.63;25.63;;;;;;;2.31;65.50;101548.13;5052820;28;20416;-64
2023/12/03 02:29:38;;;;;;;44.72;23.13;;;;;;;2.11;65.86;101548.50;5052505;28;20656;-65
2023/12/03 02:32:05;;;;;;;44.65;23.83;;;;;;;2.12;66.46;101560.19;5053123;28;20641;-65
2023/12/03 02:34:32;;;;;;;47.28;24.60;;;;;;;1.90;67.06;101559.16;5053273;28;20508;-65
2023/12/03 02:37:00;;;;;;;49.78;24.00;;;;;;;2.03;67.05;101556.19;5070414;28;20053;-65
2023/12/03 02:39:27;;;;;;;51.30;24.65;;;;;;;1.96;67.39;101552.75;5056608;28;20068;-63
2023/12/03 02:41:54;;;;;;;45.45;22.80;;;;;;;2.08;66.96;101553.59;5053041;28;20064;-64
2023/12/03 02:44:21;;;;;;;46.63;24.80;;;;;;;1.97;66.87;101549.00;5052197;28;20048;-64
2023/12/03 02:46:48;;;;;;;44.70;23.42;;;;;;;1.97;66.74;101547.09;5017918;28;20555;-64
2023/12/03 02:49:16;;;;;;;48.65;24.05;;;;;;;1.96;67.12;101544.59;5051508;28;20040;-65
2023/12/03 02:51:43;;;;;;;48.28;24.65;;;;;;;1.86;67.15;101545.22;5056976;28;20053;-64
2023/12/03 02:54:10;;;;;;;44.60;23.92;;;;;;;1.89;67.27;101536.59;5052121;28;20056;-65
2023/12/03 02:56:38;;;;;;;48.00;24.05;;;;;;;1.79;68.01;101535.53;5050089;28;20428;-64
2023/12/03 02:59:05;;;;;;;48.22;25.17;;;;;;;1.85;68.57;101538.13;5033344;28;20052;-64
2023/12/03 03:01:32;;;;;;;46.53;25.13;;;;;;;1.62;68.69;101538.09;5066968;28;20421;-64
2023/12/03 03:04:01;;;;;;;45.83;25.73;;;;;;;1.47;69.13;101539.63;5034281;28;20037;-64
2023/12/03 03:06:28;;;;;;;47.70;25.50;;;;;;;1.63;69.02;101545.19;5051634;28;20053;-64
2023/12/03 03:08:56;;;;;;;46.20;25.15;;;;;;;1.81;68.94;101553.25;5054360;28;20595;-65
2023/12/03 03:11:23;;;;;;;48.10;25.33;;;;;;;1.78;69.33;101545.56;5033455;28;20060;-64
2023/12/03 03:13:50;;;;;;;52.22;25.90;;;;;;;1.65;68.80;101548.50;5051629;28;20047;-64
2023/12/03 03:16:18;;;;;;;46.38;25.50;;;;;;;1.68;69.62;101539.03;5049246;28;20049;-66
2023/12/03 03:18:45;;;;;;;45.00;23.40;;;;;;;1.71;68.88;101544.03;5033769;28;20057;-64
2023/12/03 03:21:12;;;;;;;47.67;24.45;;;;;;;1.64;69.69;101541.41;5049801;28;20053;-64
2023/12/03 03:23:39;;;;;;;45.08;24.15;;;;;;;1.69;69.06;101544.25;5048074;28;20544;-65
2023/12/03 03:26:07;;;;;;;51.72;25.05;;;;;;;1.55;69.99;101548.22;5053650;28;20049;-64
2023/12/03 03:28:34;;;;;;;47.00;24.35;;;;;;;1.60;69.56;101552.97;5066372;28;20049;-64
2023/12/03 03:31:01;;;;;;;45.78;23.88;;;;;;;1.66;70.04;101550.16;5033241;28;20063;-65
2023/12/03 03:33:29;;;;;;;44.70;24.05;;;;;;;1.92;69.00;101559.72;5052794;28;20045;-64
2023/12/03 03:35:56;;;;;;;47.78;25.38;;;;;;;1.60;69.44;101558.41;5049669;28;20056;-65
2023/12/03 03:38:24;;;;;;;44.40;24.55;;;;;;;1.50;70.41;101556.25;5066493;28;20063;-64
2023/12/03 03:40:53;;;;;;;46.58;23.25;;;;;;;1.59;70.15;101564.88;5050773;28;20060;-65
2023/12/03 03:43:20;;;;;;;47.88;24.33;;;;;;;1.66;70.27;101563.72;5065784;28;20056;-64
2023/12/03 03:45:47;;;;;;;48.05;24.35;;;;;;;1.59;69.91;101554.88;5048157;28;20040;-65
2023/12/03 03:48:15;;;;;;;48.72;25.85;;;;;;;1.70;69.29;101554.06;5051260;28;20049;-66
2023/12/03 03:50:42;;;;;;;46.58;25.27;;;;;;;1.61;69.91;101547.31;5050873;28;20052;-65
2023/12/03 03:53:09;;;;;;;49.67;25.40;;;;;;;1.48;70.58;101541.28;5052818;28;20495;-65
2023/12/03 03:55:36;;;;;;;48.10;24.73;;;;;;;1.56;70.04;101544.47;5053368;28;20049;-64
2023/12/03 03:58:03;;;;;;;45.65;23.75;;;;;;;1.50;70.81;101542.69;5050924;28;20396;-65
2023/12/03 04:00:34;;;;;;;48.95;25.88;;;;;;;1.57;70.75;101543.41;5050182;28;20045;-66
2023/12/03 04:03:14;;;;;;;46.70;24.00;;;;;;;1.55;70.22;101542.00;5050569;28;20178;-66
2023/12/03 04:05:49;;;;;;;44.33;23.63;;;;;;;1.78;70.24;101534.69;5049923;28;20147;-69
2023/12/03 04:08:29;;;;;;;46.00;23.55;;;;;;;1.79;69.77;101530.09;5050515;28;20059;-66
2023/12/03 04:11:04;;;;;;;47.10;24.80;;;;;;;1.90;69.08;101523.84;5048999;28;20044;-66
2023/12/03 04:13:36;;;;;;;45.50;23.08;;;;;;;2.04;69.32;101523.34;5033470;28;20080;-65
2023/12/03 04:16:19;;;;;;;49.00;24.90;;;;;;;1.90;69.05;101526.56;5034141;28;20447;-65
2023/12/03 04:18:48;;;;;;;48.45;24.35;;;;;;;1.78;69.12;101529.25;5051766;28;20572;-66
2023/12/03 04:21:15;;;;;;;45.15;24.30;;;;;;;1.73;69.23;101534.56;5031970;28;20037;-65
2023/12/03 04:23:43;;;;;;;46.38;23.73;;;;;;;1.76;69.31;101533.28;5050770;28;20052;-65
2023/12/03 04:26:12;;;;;;;50.08;23.80;;;;;;;1.90;68.94;101545.56;5051233;28;20472;-64
2023/12/03 04:28:40;;;;;;;42.10;22.70;;;;;;;2.00;68.71;101543.91;5049448;28;20702;-65
2023/12/03 04:31:19;;;;;;;41.25;22.15;;;;;;;2.18;68.21;101551.09;5050096;28;20064;-64
2023/12/03 04:33:46;;;;;;;41.58;22.50;;;;;;;2.18;67.30;101532.91;5055176;28;20045;-65
2023/12/03 04:36:14;;;;;;;44.53;22.35;;;;;;;2.13;67.55;101530.06;5065206;28;20057;-64
2023/12/03 04:38:42;;;;;;;47.03;23.25;;;;;;;1.99;67.70;101525.94;5047949;28;20064;-64
2023/12/03 04:41:09;;;;;;;44.25;23.40;;;;;;;1.80;68.19;101534.44;5041386;28;20076;-63
2023/12/03 04:43:36;;;;;;;42.33;22.65;;;;;;;1.85;68.33;101535.41;5041878;28;20053;-65
2023/12/03 04:46:05;;;;;;;41.60;23.83;;;;;;;1.97;67.96;101529.97;5032451;28;20044;-63
2023/12/03 04:48:34;;;;;;;50.47;24.45;;;;;;;1.85;68.38;101523.69;5049180;28;20053;-64
2023/12/03 04:51:02;;;;;;;46.38;23.98;;;;;;;1.87;68.26;101524.28;5049057;28;20052;-64
2023/12/03 04:53:29;;;;;;;44.25;23.40;;;;;;;1.81;68.86;101523.38;5031829;28;20045;-65
2023/12/03 04:55:56;;;;;;;45.35;22.35;;;;;;;1.99;68.92;101522.41;5056965;28;20053;-64
2023/12/03 04:58:25;;;;;;;47.78;24.40;;;;;;;1.91;68.96;101512.75;5048411;28;20060;-64
2023/12/03 05:00:53;;;;;;;46.38;23.23;;;;;;;1.78;69.28;101521.09;5049939;28;20503;-65
2023/12/03 05:03:20;;;;;;;47.47;24.15;;;;;;;1.90;68.66;101518.41;5048347;28;20412;-64
2023/12/03 05:05:47;;;;;;;47.67;23.88;;;;;;;1.87;68.76;101511.53;5048923;28;20158;-65
2023/12/03 05:08:15;;;;;;;44.70;22.60;;;;;;;1.78;69.01;101514.88;5069564;28;20053;-66
2023/12/03 05:10:42;;;;;;;46.00;23.75;;;;;;;1.58;69.49;101514.38;5053688;28;20053;-64
2023/12/03 05:13:09;;;;;;;46.80;23.05;;;;;;;1.78;69.54;101512.16;5049967;28;20425;-64
2023/12/03 05:15:37;;;;;;;46.67;23.77;;;;;;;1.93;69.22;101513.34;5049964;28;20049;-64
2023/12/03 05:18:04;;;;;;;45.58;24.05;;;;;;;1.69;69.53;101511.66;5048382;28;20061;-64
2023/12/03 05:20:34;;;;;;;46.60;23.98;;;;;;;1.69;69.90;101508.13;5047911;28;20053;-65
2023/12/03 05:23:02;;;;;;;48.22;23.90;;;;;;;1.63;70.45;101509.91;5056899;28;20052;-64
2023/12/03 05:25:29;;;;;;;49.42;23.92;;;;;;;1.69;70.59;101506.22;5050221;28;20049;-67
2023/12/03 05:27:56;;;;;;;45.95;24.50;;;;;;;1.76;70.20;101514.28;5048448;28;20049;-64
2023/12/03 05:30:25;;;;;;;46.00;24.73;;;;;;;1.87;69.92;101502.56;5049920;28;20370;-65
2023/12/03 05:32:52;;;;;;;50.45;24.45;;;;;;;1.80;70.32;101499.16;5048760;28;20623;-64
2023/12/03 05:35:20;;;;;;;53.03;26.13;;;;;;;1.75;70.69;101510.72;5049870;28;20049;-65
2023/12/03 05:37:47;;;;;;;49.85;25.63;;;;;;;1.57;71.10;101515.44;5050275;28;20049;-64
2023/12/03 05:40:14;;;;;;;51.25;26.10;;;;;;;1.56;71.53;101502.91;5050126;28;20135;-63
2023/12/03 05:42:41;;;;;;;47.72;24.63;;;;;;;1.81;70.98;101493.50;5049890;28;20041;-64
2023/12/03 05:45:09;;;;;;;52.08;25.20;;;;;;;1.84;69.99;101493.03;5050302;28;20049;-64
2023/12/03 05:47:36;;;;;;;53.83;25.95;;;;;;;1.77;70.59;101492.31;5053525;28;20566;-64
2023/12/03 05:50:05;;;;;;;53.03;26.63;;;;;;;1.78;70.87;101495.88;5052959;28;20056;-64
2023/12/03 05:52:32;;;;;;;52.33;25.30;;;;;;;1.63;71.23;101495.50;5059276;28;20060;-64
2023/12/03 05:55:00;;;;;;;50.33;26.55;;;;;;;1.47;72.25;101496.19;5053777;28;20040;-64
2023/12/03 05:57:28;;;;;;;51.70;25.70;;;;;;;1.57;72.19;101502.69;5035770;28;20049;-65
2023/12/03 05:59:55;;;;;;;57.17;27.27;;;;;;;1.65;71.61;101502.34;5045450;28;20054;-65
2023/12/03 06:02:23;;;;;;;48.15;24.70;;;;;;;1.71;71.71;101501.38;5053304;28;20064;-64
2023/12/03 06:04:50;;;;;;;50.17;25.88;;;;;;;1.72;71.71;101504.94;5053390;28;20061;-65
2023/12/03 06:07:17;;;;;;;49.63;24.73;;;;;;;1.48;72.32;101503.28;5055201;28;20053;-64
2023/12/03 06:09:45;;;;;;;48.63;25.50;;;;;;;1.65;72.79;101505.06;5054307;28;20061;-64
2023/12/03 06:12:12;;;;;;;49.10;25.38;;;;;;;1.71;72.02;101500.59;5041810;28;20057;-65
2023/12/03 06:14:39;;;;;;;53.45;26.60;;;;;;;1.54;72.40;101508.59;5050935;28;20045;-64
2023/12/03 06:17:07;;;;;;;46.42;24.75;;;;;;;1.71;72.66;101501.38;5050489;28;20053;-64
2023/12/03 06:19:34;;;;;;;47.75;24.60;;;;;;;1.57;72.46;101494.53;5051216;28;20052;-64
2023/12/03 06:22:02;;;;;;;46.70;24.58;;;;;;;1.65;72.67;101493.38;5060215;28;20059;-62
2023/12/03 06:24:29;;;;;;;48.88;25.20;;;;;;;1.74;72.66;101483.81;5051981;28;20056;-63
2023/12/03 06:26:56;;;;;;;48.78;24.77;;;;;;;1.87;72.05;101484.38;5053066;28;20044;-64
2023/12/03 06:29:23;;;;;;;45.22;24.35;;;;;;;1.71;72.22;101485.09;5052336;28;20367;-64
2023/12/03 06:31:51;;;;;;;47.95;24.48;;;;;;;1.64;71.63;101486.31;5053321;28;20050;-61
2023/12/03 06:34:18;;;;;;;48.53;23.70;;;;;;;1.48;72.39;101484.28;5058421;28;20053;-64
2023/12/03 06:36:46;;;;;;;45.13;23.48;;;;;;;1.52;73.38;101490.88;5053989;28;20037;-64
2023/12/03 06:39:13;;;;;;;46.55;23.02;;;;;;;1.64;73.40;101494.44;5048606;28;20064;-64
2023/12/03 06:41:40;;;;;;;48.10;25.33;;;;;;;1.60;72.94;101491.38;5047173;28;20053;-64
2023/12/03 06:44:08;;;;;;;49.90;23.75;;;;;;;1.22;73.94;101490.94;5050177;28;20068;-64
2023/12/03 06:46:41;;;;;;;48.85;24.60;;;;;;;1.30;74.50;101487.91;5051263;28;20052;-64
2023/12/03 06:49:10;;;;;;;49.50;25.27;;;;;;;1.34;74.60;101491.00;5052222;28;20068;-64
2023/12/03 06:51:37;;;;;;;50.60;25.40;;;;;;;1.45;74.18;101491.00;5052721;28;20396;-65
2023/12/03 06:54:06;;;;;;;47.28;25.10;;;;;;;1.73;73.34;101495.72;5050985;28;20064;-64
2023/12/03 06:56:33;;;;;;;49.13;24.70;;;;;;;1.65;72.93;101490.66;5043076;28;20357;-64
2023/12/03 06:59:01;;;;;;;45.17;23.35;;;;;;;1.67;73.05;101494.81;5051885;28;20049;-65
2023/12/03 07:01:28;;;;;;;43.47;23.60;;;;;;;1.91;72.59;101493.72;5045341;28;20045;-62
2023/12/03 07:03:55;;;;;;;51.63;24.23;;;;;;;1.84;72.63;101489.47;5042720;28;20136;-61
2023/12/03 07:06:26;;;;;;;48.67;24.20;;;;;;;1.65;72.62;101487.94;5053938;28;20049;-63
2023/12/03 07:08:59;;;;;;;54.63;24.25;;;;;;;1.65;72.92;101494.22;5054417;28;20056;-64
2023/12/03 07:11:52;;;;;;;48.05;24.67;;;;;;;1.68;72.83;101496.44;5033756;28;20064;-62
2023/12/03 07:14:31;;;;;;;46.33;24.70;;;;;;;1.54;72.84;101502.31;5051102;28;20049;-62
2023/12/03 07:17:04;;;;;;;42.67;23.13;;;;;;;1.55;73.81;101499.38;5020318;28;20061;-63
2023/12/03 07:20:05;;;;;;;48.33;24.17;;;;;;;1.90;72.97;101494.78;5042324;28;20053;-64
2023/12/03 07:23:19;;;;;;;48.20;24.33;;;;;;;2.02;72.23;101498.28;5037609;28;20049;-63
2023/12/03 07:25:50;;;;;;;46.05;25.05;;;;;;;1.85;71.93;101491.09;5051866;28;20460;-63
2023/12/03 07:28:28;;;;;;;46.47;23.60;;;;;;;1.93;72.06;101498.91;5051645;28;20052;-62
2023/12/03 07:30:57;;;;;;;44.30;23.08;;;;;;;2.01;72.38;101495.81;5052853;28;20045;-63
2023/12/03 07:33:25;;;;;;;49.13;24.48;;;;;;;2.05;72.02;101497.00;5029039;28;20053;-62
2023/12/03 07:36:01;;;;;;;43.83;23.08;;;;;;;1.83;72.17;101498.69;5053918;28;20067;-62
2023/12/03 07:38:50;;;;;;;45.38;24.02;;;;;;;1.71;72.58;101503.31;5051660;28;20077;-64
2023/12/03 07:41:52;;;;;;;47.60;23.88;;;;;;;1.89;72.70;101497.72;5030785;28;20060;-62
2023/12/03 07:44:21;;;;;;;48.97;24.60;;;;;;;2.02;72.55;101494.78;5050523;28;20858;-62
2023/12/03 07:46:49;;;;;;;46.47;23.98;;;;;;;1.81;72.63;101493.50;5051052;28;20045;-62
2023/12/03 07:49:18;;;;;;;46.78;24.65;;;;;;;1.98;72.71;101485.44;5050773;28;20160;-61
2023/12/03 07:51:47;;;;;;;45.58;23.77;;;;;;;2.00;71.67;101491.47;5049932;28;20041;-60
2023/12/03 07:54:14;;;;;;;43.08;22.65;;;;;;;2.00;72.26;101483.31;5049656;28;20508;-61
2023/12/03 07:57:00;;;;;;;45.00;21.95;;;;;;;2.13;71.89;101481.16;5051987;28;20060;-66
2023/12/03 07:59:36;;;;;;;47.38;23.42;;;;;;;1.89;71.59;101487.69;5051047;28;20064;-67
2023/12/03 08:02:13;;;;;;;47.58;24.02;;;;;;;2.03;71.45;101478.22;5049082;28;20052;-65
2023/12/03 08:04:48;;;;;;;45.30;22.73;;;;;;;1.96;71.95;101482.13;5024316;28;20061;-65
2023/12/03 08:07:25;;;;;;;41.70;22.65;;;;;;;1.92;72.64;101475.50;5046836;28;20056;-66
2023/12/03 08:09:54;;;;;;;44.90;23.85;;;;;;;1.79;72.66;101459.47;5052891;28;20123;-66
2023/12/03 08:12:23;;;;;;;43.92;23.13;;;;;;;1.96;72.70;101463.13;5053129;28;20064;-64
2023/12/03 08:14:57;;;;;;;46.90;22.38;;;;;;;2.02;72.05;101462.97;5017180;28;20056;-65
2023/12/03 08:17:29;;;;;;;41.00;21.98;;;;;;;2.30;71.55;101459.50;5042737;28;20052;-66
2023/12/03 08:20:01;;;;;;;44.10;22.10;;;;;;;2.16;71.28;101466.28;5032559;28;20053;-66
2023/12/03 08:22:28;;;;;;;48.60;23.52;;;;;;;2.16;71.40;101452.69;5048818;28;20579;-66
2023/12/03 08:24:56;;;;;;;43.65;21.65;;;;;;;1.95;71.66;101462.28;5049412;28;20048;-66
2023/12/03 08:27:24;;;;;;;45.08;22.83;;;;;;;1.88;72.43;101458.06;5049307;28;20076;-65
2023/12/03 08:29:57;;;;;;;44.85;22.63;;;;;;;2.01;72.18;101457.78;5052278;28;20052;-66
2023/12/03 08:32:31;;;;;;;;;;;;;;;1.97;72.15;101459.34;5049343;28;20057;-64
2023/12/03 08:34:58;;;;;;;46.65;23.13;;;;;;;1.96;72.20;101455.81;5057466;28;19932;-64
2023/12/03 08:37:25;;;;;;;43.90;22.27;;;;;;;1.97;72.45;101465.59;5045094;28;20053;-65
2023/12/03 08:39:53;;;;;;;40.38;22.25;;;;;;;1.97;71.90;101449.28;5047941;28;20330;-65
2023/12/03 08:42:21;;;;;;;42.13;21.70;;;;;;;2.12;71.41;101452.34;5036893;28;20057;-65
2023/12/03 08:44:53;;;;;;;38.45;20.40;;;;;;;2.33;71.26;101450.03;5044721;28;20712;-66
2023/12/03 08:47:43;;;;;;;41.53;20.45;;;;;;;2.19;70.83;101454.91;5044802;28;20048;-65
2023/12/03 08:50:11;;;;;;;43.75;22.33;;;;;;;2.21;71.02;101453.59;5041064;28;20045;-65
2023/12/03 08:52:38;;;;;;;42.88;21.50;;;;;;;2.22;70.69;101449.84;5047910;28;20060;-65
2023/12/03 08:55:06;;;;;;;43.60;21.38;;;;;;;2.22;70.47;101446.28;5049667;28;20067;-65
2023/12/03 08:57:34;;;;;;;41.47;22.60;;;;;;;2.40;70.12;101451.56;5050348;28;20048;-65
2023/12/03 09:00:07;;;;;;;43.03;22.17;;;;;;;2.43;70.08;101437.47;5044605;28;20048;-66
2023/12/03 09:02:36;;;;;;;39.63;20.50;;;;;;;2.47;69.46;101440.53;5032839;28;20041;-65
2023/12/03 09:05:06;;;;;;;37.90;20.02;;;;;;;2.34;69.77;101454.41;5044793;28;20612;-64
2023/12/03 09:07:33;;;;;;;38.90;20.13;;;;;;;2.36;70.27;101447.66;5049704;28;20051;-66
2023/12/03 09:10:02;;;;;;;39.33;20.73;;;;;;;2.67;69.08;101451.81;5049170;28;20504;-64
2023/12/03 09:12:30;;;;;;;42.85;21.40;;;;;;;2.73;69.08;101450.81;5047810;28;20064;-65
2023/12/03 09:14:57;;;;;;;34.65;19.45;;;;;;;2.64;68.74;101444.09;5048235;28;20053;-65
2023/12/03 09:17:26;;;;;;;37.75;19.92;;;;;;;2.47;68.03;101438.66;5029952;28;20547;-65
2023/12/03 09:19:53;;;;;;;41.40;18.98;;;;;;;2.74;68.11;101426.09;5047086;28;20049;-64
2023/12/03 09:22:20;;;;;;;37.60;19.42;;;;;;;2.82;67.76;101422.97;5047643;28;20063;-67
2023/12/03 09:24:48;;;;;;;37.38;18.60;;;;;;;3.07;69.09;101411.69;5050347;28;20048;-65
2023/12/03 09:27:16;;;;;;;36.33;19.85;;;;;;;3.26;67.51;101424.00;5059388;28;20049;-65
2023/12/03 09:29:43;;;;;;;37.85;19.33;;;;;;;3.14;65.86;101425.94;5050316;28;20056;-65
2023/12/03 09:32:10;;;;;;;37.78;19.90;;;;;;;3.02;67.16;101419.75;5050183;28;20048;-67
2023/12/03 09:34:38;;;;;;;41.08;19.73;;;;;;;2.93;66.82;101413.09;5048955;28;20060;-62
2023/12/03 09:37:05;;;;;;;37.08;19.10;;;;;;;3.01;66.55;101423.56;5067751;28;20415;-62
2023/12/03 09:39:32;;;;;;;37.15;20.05;;;;;;;3.07;66.52;101422.56;5060399;28;20045;-63
2023/12/03 09:42:01;;;;;;;35.58;18.95;;;;;;;3.11;66.36;101427.28;5051997;28;20051;-62
2023/12/03 09:44:40;;;;;;;34.15;18.23;;;;;;;3.06;66.93;101424.50;5053427;28;20049;-62
2023/12/03 09:47:08;;;;;;;36.60;18.98;;;;;;;3.15;66.54;101422.19;5050689;28;20057;-62
2023/12/03 09:49:38;;;;;;;40.22;19.48;;;;;;;3.29;66.23;101426.22;5031036;28;20049;-63
2023/12/03 09:52:07;;;;;;;33.22;18.35;;;;;;;3.29;65.79;101428.94;5051535;28;20053;-63
2023/12/03 09:54:35;;;;;;;36.30;18.40;;;;;;;3.38;65.17;101433.69;5018805;28;20053;-61
2023/12/03 09:57:03;;;;;;;33.70;18.45;;;;;;;3.41;64.99;101443.28;5035043;28;20053;-63
2023/12/03 09:59:31;;;;;;;34.85;18.02;;;;;;;3.35;64.71;101445.09;5046675;28;20048;-66
2023/12/03 10:01:59;;;;;;;33.95;18.45;;;;;;;3.70;65.51;101433.91;5051154;28;20377;-63
2023/12/03 10:04:27;;;;;;;33.83;18.33;;;;;;;3.78;64.61;101435.41;5051611;28;20052;-62
2023/12/03 10:06:56;;;;;;;35.80;18.35;;;;;;;3.67;64.54;101433.59;5050547;28;20538;-66
2023/12/03 10:09:23;;;;;;;36.55;19.08;;;;;;;3.57;64.26;101428.00;5039607;28;20049;-64
2023/12/03 10:11:55;;;;;;;35.20;19.17;;;;;;;3.46;64.93;101432.47;5051876;28;20061;-63
2023/12/03 10:14:23;;;;;;;35.13;18.73;;;;;;;3.55;64.84;101425.53;5051979;28;20057;-61
2023/12/03 10:16:50;;;;;;;33.42;18.88;;;;;;;3.54;65.34;101426.59;5060582;28;20041;-64
2023/12/03 10:19:24;;;;;;;34.95;18.30;;;;;;;3.44;65.49;101419.09;5051522;28;20528;-63
2023/12/03 10:21:53;;;;;;;36.50;18.73;;;;;;;3.64;66.27;101418.59;5051203;28;20036;-62
2023/12/03 10:24:20;;;;;;;38.03;20.05;;;;;;;3.52;64.61;101414.31;5046030;28;20405;-62
2023/12/03 10:27:00;;;;;;;31.02;16.98;;;;;;;3.70;64.50;101417.56;5046704;28;20049;-61
2023/12/03 10:29:28;;;;;;;34.03;17.80;;;;;;;3.82;63.62;101418.28;5043008;28;20492;-62
2023/12/03 10:31:56;;;;;;;35.13;18.48;;;;;;;3.91;63.31;101418.66;5045660;28;20051;-61
2023/12/03 10:34:24;;;;;;;32.53;18.50;;;;;;;4.12;63.47;101418.69;5052366;28;20056;-63
2023/12/03 10:36:52;;;;;;;38.45;19.30;;;;;;;4.20;62.30;101418.22;5051040;28;20062;-63
2023/12/03 10:39:37;;;;;;;36.80;18.90;;;;;;;4.09;62.58;101410.19;5050927;28;20515;-65
2023/12/03 10:42:36;;;;;;;33.20;17.60;;;;;;;4.00;62.32;101396.19;5037894;28;20048;-63
2023/12/03 10:45:07;;;;;;;34.38;18.38;;;;;;;3.74;63.15;101391.47;5052411;28;20053;-63
2023/12/03 10:47:36;;;;;;;33.42;17.13;;;;;;;3.67;64.22;101393.56;5048167;28;20037;-62
2023/12/03 10:50:05;;;;;;;32.30;16.98;;;;;;;3.60;63.55;101395.63;5045981;28;20059;-61
2023/12/03 10:52:34;;;;;;;31.48;16.73;;;;;;;3.52;63.45;101401.53;5048090;28;20057;-62
2023/12/03 10:55:02;;;;;;;31.77;17.27;;;;;;;3.71;63.48;101385.72;5044451;28;20045;-62
2023/12/03 10:57:31;;;;;;;36.50;17.52;;;;;;;3.76;63.01;101378.44;5048525;28;20045;-62
2023/12/03 11:00:19;;;;;;;34.50;17.95;;;;;;;3.67;63.10;101370.94;5065044;28;20480;-68
2023/12/03 11:03:14;;;;;;;29.80;16.55;;;;;;;4.01;62.00;101365.09;5034320;28;20440;-67
2023/12/03 11:05:52;;;;;;;34.70;16.55;;;;;;;3.94;62.13;101367.19;5051002;28;20056;-66
2023/12/03 11:08:21;;;;;;;30.70;16.33;;;;;;;4.14;61.67;101364.72;5021314;28;20087;-67
2023/12/03 11:10:50;;;;;;;31.17;17.25;;;;;;;4.31;61.92;101360.00;5031937;28;20076;-65
2023/12/03 11:13:18;;;;;;;33.13;15.82;;;;;;;4.36;61.03;101356.50;5042080;28;20526;-65
2023/12/03 11:15:57;;;;;;;30.20;16.70;;;;;;;4.56;60.21;101354.00;5027397;28;20060;-67
2023/12/03 11:18:24;;;;;;;27.90;15.45;;;;;;;4.77;60.01;101355.84;5048181;28;20055;-61
2023/12/03 11:20:54;;;;;;;27.52;15.07;;;;;;;4.76;58.96;101343.25;5046248;28;20049;-61
2023/12/03 11:23:24;;;;;;;32.28;16.15;;;;;;;4.70;60.29;101341.56;5049483;28;20503;-62
2023/12/03 11:25:56;;;;;;;28.83;16.05;;;;;;;4.75;59.63;101343.50;5043697;28;20049;-62
2023/12/03 11:28:23;;;;;;;29.50;16.80;;;;;;;4.55;60.18;101338.69;5046346;28;20041;-62